Time;durP1;ratioP1;P1;durP2;ratioP2;P2;SDS_P1;SDS_P2;PMS_P1;PMS_P2;Temp;Humidity;BMP_temperature;BMP_pressure;BME280_temperature;BME280_humidity;BME280_pressure;Samples;Min_cycle;Max_cycle;Signal;HPM_P1;HPM_P2
2023/12/26 00:01:17;;;;;;;2.47;2.20;;;18.90;75.90;;;;;;5054833;28;20442;-81
2023/12/26 00:03:48;;;;;;;5.30;2.30;;;18.90;76.20;;;;;;5077367;22;20580;-78
2023/12/26 00:06:21;;;;;;;2.40;2.20;;;18.80;75.70;;;;;;5052986;28;20552;-79
2023/12/26 00:08:50;;;;;;;3.03;2.03;;;18.90;77.40;;;;;;5035600;28;20424;-79
2023/12/26 00:11:18;;;;;;;4.67;2.57;;;19.00;77.80;;;;;;5035111;28;20425;-77
2023/12/26 00:13:46;;;;;;;3.57;2.40;;;19.00;77.50;;;;;;5036283;28;20470;-77
2023/12/26 00:20:17;;;;;;;3.23;2.40;;;18.90;77.30;;;;;;5039257;28;20407;-79
2023/12/26 00:22:47;;;;;;;21.10;2.50;;;18.90;77.60;;;;;;5037786;28;20435;-78
2023/12/26 00:25:16;;;;;;;8.90;2.00;;;18.50;79.50;;;;;;5062964;28;20445;-78
2023/12/26 00:27:44;;;;;;;3.80;1.80;;;18.30;80.80;;;;;;5062897;28;20534;-79
2023/12/26 00:30:12;;;;;;;9.43;1.37;;;18.00;77.70;;;;;;5050851;28;20447;-77
2023/12/26 00:32:40;;;;;;;3.53;1.50;;;17.70;79.00;;;;;;5056645;28;20509;-79
2023/12/26 00:35:09;;;;;;;2.93;1.40;;;18.00;81.10;;;;;;5056749;28;20482;-79
2023/12/26 00:37:38;;;;;;;2.80;1.27;;;18.20;79.60;;;;;;5059686;28;20448;-80
2023/12/26 00:40:09;;;;;;;1.73;1.50;;;18.40;79.00;;;;;;5055565;28;20446;-80
2023/12/26 00:42:37;;;;;;;2.60;1.60;;;18.50;77.50;;;;;;5043816;28;20466;-77
2023/12/26 00:45:07;;;;;;;2.10;1.40;;;18.60;77.90;;;;;;5045684;28;20481;-80
2023/12/26 00:47:35;;;;;;;1.93;1.17;;;18.70;77.00;;;;;;5061010;28;20463;-80
2023/12/26 00:50:13;;;;;;;3.30;1.10;;;18.70;76.70;;;;;;5063033;28;20498;-79
2023/12/26 00:52:54;;;;;;;4.10;1.20;;;18.70;76.50;;;;;;5055377;28;20446;-79
2023/12/26 00:55:29;;;;;;;1.70;1.10;;;18.70;76.20;;;;;;5048726;28;20443;-79
2023/12/26 00:58:12;;;;;;;2.13;1.13;;;18.80;76.40;;;;;;5046758;28;20439;-78
2023/12/26 01:00:42;;;;;;;1.43;1.33;;;18.80;76.20;;;;;;5052439;28;20446;-79
2023/12/26 01:03:10;;;;;;;1.97;0.80;;;18.80;75.60;;;;;;5055892;28;20490;-80
2023/12/26 01:05:38;;;;;;;1.23;1.03;;;18.80;76.00;;;;;;5050699;28;20449;-78
2023/12/26 01:08:08;;;;;;;0.93;0.93;;;18.80;75.60;;;;;;5046711;28;20469;-80
2023/12/26 01:10:48;;;;;;;1.63;1.10;;;18.80;75.40;;;;;;5054355;28;20500;-77
2023/12/26 01:13:18;;;;;;;2.27;1.10;;;18.80;75.80;;;;;;5049294;28;20504;-79
2023/12/26 01:15:46;;;;;;;1.93;1.00;;;18.90;75.50;;;;;;5047219;28;20501;-81
2023/12/26 01:18:14;;;;;;;1.30;1.03;;;18.80;75.70;;;;;;5061697;28;20455;-79
2023/12/26 01:20:43;;;;;;;2.10;0.90;;;18.80;75.20;;;;;;5062279;28;20434;-80
2023/12/26 01:23:11;;;;;;;3.10;1.17;;;18.80;75.30;;;;;;5063050;28;20489;-77
2023/12/26 01:25:41;;;;;;;2.27;0.90;;;18.80;75.80;;;;;;5062540;28;20485;-80
2023/12/26 01:28:25;;;;;;;3.37;1.00;;;18.80;75.80;;;;;;5060969;28;20466;-80
2023/12/26 01:30:53;;;;;;;1.13;0.80;;;18.80;75.70;;;;;;5060563;28;20442;-79
2023/12/26 01:33:22;;;;;;;1.20;0.90;;;18.80;75.00;;;;;;5064437;28;20477;-81
2023/12/26 01:35:51;;;;;;;1.30;0.97;;;18.80;75.30;;;;;;5065411;28;20478;-77
2023/12/26 01:38:19;;;;;;;7.50;1.30;;;18.80;75.50;;;;;;5065234;28;20467;-83
2023/12/26 01:40:53;;;;;;;2.73;1.00;;;18.80;75.30;;;;;;5066225;28;20473;-80
2023/12/26 01:43:21;;;;;;;1.93;0.90;;;18.80;75.20;;;;;;5062956;28;20481;-78
2023/12/26 01:45:59;;;;;;;1.27;1.10;;;18.80;75.60;;;;;;5059083;28;20439;-79
2023/12/26 01:48:34;;;;;;;2.77;1.00;;;18.80;75.30;;;;;;5040792;28;20553;-79
2023/12/26 01:51:11;;;;;;;1.27;0.90;;;18.80;75.60;;;;;;5040407;28;20497;-79
2023/12/26 01:53:46;;;;;;;4.70;0.90;;;18.80;75.30;;;;;;5038564;28;20546;-79
2023/12/26 01:56:22;;;;;;;1.87;0.83;;;18.80;75.30;;;;;;5036833;28;20446;-79
2023/12/26 01:58:55;;;;;;;1.43;0.90;;;18.80;75.50;;;;;;5037578;28;20450;-80
2023/12/26 02:01:24;;;;;;;1.10;1.10;;;18.80;75.30;;;;;;5039156;28;20419;-77
2023/12/26 02:03:54;;;;;;;2.93;1.00;;;18.80;75.00;;;;;;5047687;28;20513;-79
2023/12/26 02:06:23;;;;;;;1.17;1.00;;;18.80;75.20;;;;;;5057328;28;20470;-79
2023/12/26 02:08:52;;;;;;;0.80;0.80;;;18.80;75.40;;;;;;5060292;28;20533;-78
2023/12/26 02:11:27;;;;;;;1.83;0.80;;;18.80;75.20;;;;;;5059880;28;20451;-82
2023/12/26 02:14:35;;;;;;;1.97;1.00;;;18.80;75.00;;;;;;5059691;28;20493;-81
2023/12/26 02:17:04;;;;;;;0.90;0.80;;;18.80;75.40;;;;;;5057963;28;20468;-82
2023/12/26 02:19:33;;;;;;;1.00;0.80;;;18.80;75.40;;;;;;5057939;28;20450;-76
2023/12/26 02:22:02;;;;;;;1.40;0.80;;;18.80;75.00;;;;;;5058938;28;20506;-80
2023/12/26 02:24:31;;;;;;;1.07;0.80;;;18.80;75.20;;;;;;5059214;28;20462;-77
2023/12/26 02:27:00;;;;;;;1.00;1.00;;;18.80;75.10;;;;;;5058646;28;20443;-80
2023/12/26 02:29:28;;;;;;;1.07;0.80;;;18.80;75.10;;;;;;5061151;28;20455;-80
2023/12/26 02:31:57;;;;;;;4.50;1.10;;;18.80;75.50;;;;;;5062416;28;20462;-79
2023/12/26 02:34:25;;;;;;;2.00;0.70;;;18.80;75.30;;;;;;5059274;28;20452;-79
2023/12/26 02:36:53;;;;;;;1.23;0.90;;;18.80;74.70;;;;;;5059822;28;20510;-79
2023/12/26 02:39:21;;;;;;;0.73;0.73;;;18.70;75.30;;;;;;5060320;28;20500;-81
2023/12/26 02:41:53;;;;;;;1.20;0.93;;;18.70;75.40;;;;;;5060061;28;20451;-78
2023/12/26 02:44:21;;;;;;;1.77;0.70;;;18.80;75.10;;;;;;5060281;28;20478;-77
2023/12/26 02:46:50;;;;;;;0.67;0.67;;;18.70;75.30;;;;;;5056906;28;20476;-79
2023/12/26 02:49:18;;;;;;;1.03;0.70;;;18.80;75.30;;;;;;5056531;28;20474;-79
2023/12/26 02:51:48;;;;;;;1.80;0.90;;;18.80;75.40;;;;;;5055887;28;20525;-78
2023/12/26 02:54:16;;;;;;;0.70;0.70;;;18.80;75.60;;;;;;5056805;28;20653;-78
2023/12/26 02:56:46;;;;;;;0.97;0.70;;;18.80;75.30;;;;;;5056413;28;20451;-78
2023/12/26 02:59:15;;;;;;;1.43;0.87;;;18.80;75.00;;;;;;5056560;28;20457;-79
2023/12/26 03:01:44;;;;;;;1.80;1.00;;;18.80;75.20;;;;;;5056853;28;20450;-80
2023/12/26 03:04:13;;;;;;;1.23;0.80;;;18.80;75.20;;;;;;5055731;28;20513;-77
2023/12/26 03:06:40;;;;;;;1.53;0.80;;;18.70;75.30;;;;;;5051588;28;20512;-79
2023/12/26 03:09:09;;;;;;;2.20;1.03;;;18.80;75.40;;;;;;5055904;28;20471;-77
2023/12/26 03:11:37;;;;;;;1.07;1.07;;;18.80;75.50;;;;;;5054877;28;20446;-78
2023/12/26 03:14:05;;;;;;;2.10;1.03;;;18.80;75.10;;;;;;5051574;28;20470;-77
2023/12/26 03:16:35;;;;;;;0.83;0.80;;;18.80;75.50;;;;;;5051840;28;20512;-78
2023/12/26 03:19:03;;;;;;;1.53;1.00;;;18.80;75.50;;;;;;5043602;28;20447;-76
2023/12/26 03:21:31;;;;;;;1.07;0.97;;;18.80;75.60;;;;;;5034324;28;20451;-77
2023/12/26 03:24:00;;;;;;;1.10;1.00;;;18.80;75.30;;;;;;5034236;28;20597;-77
2023/12/26 03:26:28;;;;;;;1.83;1.00;;;18.80;75.10;;;;;;5034916;28;20497;-77
2023/12/26 03:28:56;;;;;;;1.20;1.20;;;18.80;75.40;;;;;;5036075;28;20521;-76
2023/12/26 03:31:25;;;;;;;1.40;1.30;;;18.70;75.40;;;;;;5036115;28;20458;-79
2023/12/26 03:33:56;;;;;;;1.50;1.40;;;18.80;75.30;;;;;;5039526;28;20494;-78
2023/12/26 03:36:24;;;;;;;2.17;1.33;;;18.70;75.60;;;;;;5057432;28;20507;-78
2023/12/26 03:38:52;;;;;;;2.23;2.03;;;18.80;75.50;;;;;;5058496;28;20451;-78
2023/12/26 03:41:20;;;;;;;1.70;1.60;;;18.70;75.60;;;;;;5059391;28;20456;-76
2023/12/26 03:43:48;;;;;;;2.00;1.90;;;18.80;75.30;;;;;;5058260;28;20496;-78
2023/12/26 03:46:16;;;;;;;2.30;1.97;;;18.80;75.40;;;;;;5057922;28;20443;-78
2023/12/26 03:48:44;;;;;;;2.60;2.10;;;18.70;75.60;;;;;;5056974;28;20478;-77
2023/12/26 03:51:19;;;;;;;2.50;2.30;;;18.80;75.60;;;;;;5040311;28;20439;-77
2023/12/26 03:53:47;;;;;;;2.50;2.30;;;18.80;75.50;;;;;;5038896;28;20472;-77
2023/12/26 03:56:15;;;;;;;2.50;2.30;;;18.80;75.20;;;;;;5038858;28;20443;-77
2023/12/26 03:58:43;;;;;;;3.07;2.27;;;18.70;75.40;;;;;;5038651;28;20465;-75
2023/12/26 04:01:12;;;;;;;1.93;1.83;;;18.70;75.30;;;;;;5042823;28;20485;-78
2023/12/26 04:03:41;;;;;;;2.37;2.20;;;18.70;75.50;;;;;;5051736;28;20474;-78
2023/12/26 04:06:09;;;;;;;4.03;2.87;;;18.80;75.20;;;;;;5055406;28;20434;-79
2023/12/26 04:08:37;;;;;;;2.73;2.53;;;18.70;75.30;;;;;;5056102;28;20492;-78
2023/12/26 04:11:05;;;;;;;2.93;2.73;;;18.70;75.50;;;;;;5048033;28;20443;-76
2023/12/26 04:13:33;;;;;;;2.57;2.37;;;18.70;75.30;;;;;;5056137;28;20953;-77
2023/12/26 04:16:01;;;;;;;3.37;2.90;;;18.70;75.00;;;;;;5058240;28;20446;-79
2023/12/26 04:18:29;;;;;;;3.50;2.73;;;18.70;75.30;;;;;;5045383;28;20451;-79
2023/12/26 04:20:58;;;;;;;2.80;2.60;;;18.70;75.40;;;;;;5046435;28;20443;-78
2023/12/26 04:23:26;;;;;;;3.37;2.73;;;18.70;75.50;;;;;;5041737;28;20481;-78
2023/12/26 04:25:55;;;;;;;5.50;3.00;;;18.70;75.40;;;;;;5046105;28;20413;-76
2023/12/26 04:28:23;;;;;;;3.10;2.63;;;18.70;75.50;;;;;;5058883;28;20442;-76
2023/12/26 04:30:51;;;;;;;3.47;2.67;;;18.70;75.60;;;;;;5050300;28;20492;-79
2023/12/26 04:33:19;;;;;;;3.87;3.20;;;18.70;75.40;;;;;;5047136;28;20490;-78
2023/12/26 04:35:48;;;;;;;4.67;3.07;;;18.70;75.60;;;;;;5050333;28;20453;-77
2023/12/26 04:38:16;;;;;;;5.80;3.20;;;18.70;75.40;;;;;;5040205;28;20447;-77
2023/12/26 04:40:44;;;;;;;4.67;2.80;;;18.70;75.40;;;;;;5050861;28;20448;-79
2023/12/26 04:43:17;;;;;;;4.33;3.10;;;18.70;75.30;;;;;;5056261;28;20528;-80
2023/12/26 04:45:45;;;;;;;5.60;3.00;;;18.70;75.10;;;;;;5058793;28;20421;-81
2023/12/26 04:48:13;;;;;;;4.80;3.20;;;18.70;75.30;;;;;;5058354;28;20429;-78
2023/12/26 04:50:42;;;;;;;3.23;2.90;;;18.70;75.00;;;;;;5052978;28;20474;-79
2023/12/26 04:53:11;;;;;;;3.93;3.17;;;18.60;75.30;;;;;;5055213;28;20470;-79
2023/12/26 04:55:39;;;;;;;7.33;2.77;;;18.60;74.70;;;;;;5050341;28;20481;-76
2023/12/26 04:58:07;;;;;;;5.40;2.90;;;18.60;75.30;;;;;;5059069;28;20442;-77
2023/12/26 05:00:37;;;;;;;3.40;3.07;;;18.70;75.40;;;;;;5059100;28;20446;-80
2023/12/26 05:03:06;;;;;;;5.00;2.90;;;18.70;75.10;;;;;;5056612;28;20548;-78
2023/12/26 05:05:34;;;;;;;3.23;2.80;;;18.70;75.20;;;;;;5059350;28;20461;-79
2023/12/26 05:08:03;;;;;;;4.40;2.93;;;18.70;75.30;;;;;;5044689;28;20448;-78
2023/12/26 05:10:33;;;;;;;3.13;2.80;;;18.60;75.10;;;;;;5053261;28;20477;-77
2023/12/26 05:13:02;;;;;;;5.47;3.10;;;18.60;75.10;;;;;;5056939;28;20467;-77
2023/12/26 05:15:30;;;;;;;3.63;2.53;;;18.60;74.90;;;;;;5050159;28;20450;-78
2023/12/26 05:18:01;;;;;;;3.80;2.60;;;18.70;75.90;;;;;;5058047;28;20458;-78
2023/12/26 05:20:30;;;;;;;2.97;2.53;;;18.60;75.10;;;;;;5058164;28;20529;-79
2023/12/26 05:22:58;;;;;;;3.27;2.60;;;18.60;74.50;;;;;;5059273;28;20565;-80
2023/12/26 05:25:27;;;;;;;2.97;2.50;;;18.60;75.20;;;;;;5051230;28;20438;-78
2023/12/26 05:27:56;;;;;;;3.60;2.63;;;18.60;75.30;;;;;;5059245;28;20558;-80
2023/12/26 05:30:24;;;;;;;4.03;2.47;;;18.60;75.20;;;;;;5058485;28;20441;-76
2023/12/26 05:32:52;;;;;;;3.07;2.53;;;18.60;74.80;;;;;;5052473;28;20454;-80
2023/12/26 05:35:22;;;;;;;3.73;2.63;;;18.50;74.70;;;;;;5054679;28;20466;-77
2023/12/26 05:37:50;;;;;;;5.87;3.03;;;18.60;74.60;;;;;;5045067;28;20454;-78
2023/12/26 05:40:19;;;;;;;5.27;2.67;;;18.50;74.90;;;;;;5049688;28;20438;-78
2023/12/26 05:42:47;;;;;;;3.00;2.20;;;18.50;74.50;;;;;;5050057;28;20493;-78
2023/12/26 05:45:16;;;;;;;3.57;2.53;;;18.50;74.40;;;;;;5063013;28;20505;-78
2023/12/26 05:47:45;;;;;;;5.73;2.30;;;18.50;74.30;;;;;;5050539;28;20466;-80
2023/12/26 05:50:13;;;;;;;3.17;2.17;;;18.40;74.80;;;;;;5043976;28;20474;-76
2023/12/26 05:52:42;;;;;;;4.97;2.57;;;18.50;74.40;;;;;;5056472;28;20453;-76
2023/12/26 05:55:14;;;;;;;5.93;1.63;;;18.40;74.30;;;;;;5058864;28;20439;-78
2023/12/26 05:57:43;;;;;;;5.20;2.50;;;18.50;74.40;;;;;;5054282;28;20451;-78
2023/12/26 06:00:12;;;;;;;3.90;2.57;;;18.50;74.20;;;;;;5052131;28;20439;-78
2023/12/26 06:02:41;;;;;;;6.00;2.57;;;18.40;74.40;;;;;;5057330;28;20458;-79
2023/12/26 06:05:30;;;;;;;6.60;2.33;;;18.50;74.30;;;;;;5084147;22;20548;-78
2023/12/26 06:08:41;;;;;;;7.00;2.50;;;18.40;74.20;;;;;;5049255;28;20427;-78
2023/12/26 06:11:11;;;;;;;3.60;2.00;;;18.40;74.30;;;;;;5048130;28;20485;-77
2023/12/26 06:13:45;;;;;;;3.47;1.90;;;18.40;74.00;;;;;;5056810;28;20462;-77
2023/12/26 06:16:20;;;;;;;5.30;2.30;;;18.40;74.40;;;;;;5055837;28;20451;-78
2023/12/26 06:19:09;;;;;;;2.83;2.07;;;18.50;74.00;;;;;;5056047;28;20442;-78
2023/12/26 06:21:48;;;;;;;3.03;1.77;;;18.40;74.10;;;;;;5055542;28;20446;-78
2023/12/26 06:24:20;;;;;;;3.63;2.30;;;18.50;74.00;;;;;;5045521;28;20547;-78
2023/12/26 06:26:50;;;;;;;4.53;2.17;;;18.40;73.80;;;;;;5021906;28;20443;-78
2023/12/26 06:29:28;;;;;;;5.57;2.10;;;18.40;73.90;;;;;;5035056;28;20451;-78
2023/12/26 06:32:05;;;;;;;3.40;1.80;;;18.40;73.90;;;;;;5036667;28;20535;-78
2023/12/26 06:34:35;;;;;;;4.13;2.20;;;18.40;74.60;;;;;;5036385;28;20525;-78
2023/12/26 06:37:09;;;;;;;4.37;2.30;;;18.40;74.30;;;;;;5036835;28;20443;-78
2023/12/26 06:39:46;;;;;;;6.60;2.17;;;18.40;74.50;;;;;;5035114;28;20474;-78
2023/12/26 06:42:24;;;;;;;4.30;2.13;;;18.40;73.90;;;;;;5032406;28;20451;-77
2023/12/26 06:45:34;;;;;;;5.03;1.90;;;18.40;74.00;;;;;;5027232;28;20462;-77
2023/12/26 06:48:16;;;;;;;4.73;2.33;;;18.40;74.00;;;;;;5028174;28;20448;-78
2023/12/26 06:50:55;;;;;;;7.00;2.80;;;18.40;74.20;;;;;;5029638;28;20487;-77
2023/12/26 06:59:53;;;;;;;5.87;2.43;;;18.40;74.10;;;;;;5029402;28;20463;-78
2023/12/26 07:02:27;;;;;;;8.47;2.30;;;18.30;73.90;;;;;;5033297;28;20530;-78
2023/12/26 07:04:58;;;;;;;7.10;2.20;;;18.30;74.10;;;;;;5032681;28;20479;-78
2023/12/26 07:07:34;;;;;;;4.40;1.87;;;18.30;73.90;;;;;;5031604;28;20455;-78
2023/12/26 07:10:10;;;;;;;5.57;2.17;;;18.30;74.00;;;;;;5024805;28;20555;-78
2023/12/26 07:12:41;;;;;;;4.43;2.30;;;18.30;74.00;;;;;;5014420;28;20453;-78
2023/12/26 07:15:10;;;;;;;5.33;2.03;;;18.30;73.80;;;;;;5014230;28;20494;-78
2023/12/26 07:17:39;;;;;;;3.53;1.90;;;18.30;74.00;;;;;;5014208;28;20440;-77
2023/12/26 07:20:09;;;;;;;4.83;2.10;;;18.30;73.80;;;;;;5021054;28;20452;-78
2023/12/26 07:22:38;;;;;;;4.23;1.83;;;18.30;73.70;;;;;;5033071;28;20996;-79
2023/12/26 07:25:07;;;;;;;2.60;1.70;;;18.30;74.00;;;;;;5033681;28;20442;-79
2023/12/26 07:32:21;;;;;;;7.87;2.10;;;18.30;73.80;;;;;;4904961;29;20487;-79
2023/12/26 07:43:26;;;;;;;4.90;1.73;;;18.30;74.10;;;;;;4802422;29;20457;-79
2023/12/26 07:45:59;;;;;;;4.10;1.60;;;18.30;74.20;;;;;;4861976;29;20537;-79
2023/12/26 07:48:28;;;;;;;4.00;2.03;;;18.30;74.10;;;;;;4922580;29;20448;-79
2023/12/26 07:50:58;;;;;;;2.43;1.50;;;18.30;73.80;;;;;;4953326;29;20535;-78
2023/12/26 07:53:26;;;;;;;6.73;2.00;;;18.30;74.10;;;;;;4950092;28;20483;-79
2023/12/26 07:55:54;;;;;;;4.20;1.83;;;18.30;74.20;;;;;;4972667;28;20450;-79
2023/12/26 07:58:23;;;;;;;5.87;1.90;;;18.30;74.00;;;;;;4972502;28;20446;-79
2023/12/26 08:00:51;;;;;;;4.30;2.03;;;18.30;74.00;;;;;;4971116;28;20475;-79
2023/12/26 08:03:19;;;;;;;3.27;1.90;;;18.30;73.80;;;;;;4973139;28;20454;-79
2023/12/26 08:05:48;;;;;;;6.40;2.30;;;18.30;73.80;;;;;;4972627;28;20442;-78
2023/12/26 08:08:17;;;;;;;5.40;1.93;;;18.30;73.60;;;;;;4993341;28;20563;-79
2023/12/26 08:10:47;;;;;;;4.93;1.93;;;18.30;73.80;;;;;;4998700;28;20496;-79
2023/12/26 08:13:15;;;;;;;2.00;1.80;;;18.30;73.80;;;;;;5014244;28;20444;-79
2023/12/26 08:15:43;;;;;;;4.27;1.90;;;18.30;73.70;;;;;;5012807;28;20457;-79
2023/12/26 08:18:11;;;;;;;5.13;1.73;;;18.30;73.70;;;;;;5014773;28;20452;-79
2023/12/26 08:20:40;;;;;;;5.30;2.20;;;18.30;73.60;;;;;;5017824;28;20498;-79
2023/12/26 08:23:12;;;;;;;6.87;2.40;;;18.30;73.70;;;;;;5017004;28;20429;-79
2023/12/26 08:25:46;;;;;;;4.00;1.97;;;18.30;73.60;;;;;;5015527;28;20622;-79
2023/12/26 08:28:16;;;;;;;3.67;1.57;;;18.30;73.50;;;;;;5009986;28;20536;-79
2023/12/26 08:30:48;;;;;;;3.90;1.60;;;18.30;73.30;;;;;;4995937;28;20480;-79
2023/12/26 08:33:18;;;;;;;3.97;1.80;;;18.30;73.40;;;;;;4994976;28;20453;-78
2023/12/26 08:35:52;;;;;;;7.77;1.87;;;18.30;73.40;;;;;;4995675;28;20448;-79
2023/12/26 08:38:21;;;;;;;4.53;2.00;;;18.30;73.10;;;;;;4995237;28;20453;-79
2023/12/26 08:40:51;;;;;;;3.87;1.60;;;18.30;73.30;;;;;;4999948;28;20436;-79
2023/12/26 08:43:32;;;;;;;4.10;1.50;;;18.30;73.40;;;;;;5006677;28;20457;-78
2023/12/26 08:46:03;;;;;;;6.97;2.00;;;18.30;73.30;;;;;;5008404;28;20475;-79
2023/12/26 08:53:08;;;;;;;5.67;1.60;;;18.30;73.80;;;;;;5014714;28;20526;-79
2023/12/26 08:56:33;;;;;;;4.10;1.60;;;18.30;73.50;;;;;;4916159;28;20534;-78
2023/12/26 08:59:57;;;;;;;4.30;1.67;;;18.30;73.50;;;;;;4986174;28;20968;-79
2023/12/26 09:03:19;;;;;;;;;;;;;;;;;;;;;
2023/12/26 09:06:41;;;;;;;3.47;1.60;;;18.40;73.50;;;;;;5013407;28;20458;-79
2023/12/26 09:09:46;;;;;;;7.60;1.87;;;18.40;73.20;;;;;;5011986;28;20428;-78
2023/12/26 09:20:50;;;;;;;;;;;;;;;;;;;;;
2023/12/26 09:32:22;;;;;;;5.20;1.70;;;18.40;73.10;;;;;;4793026;29;20572;-78
2023/12/26 09:39:44;;;;;;;3.80;1.70;;;18.50;73.10;;;;;;4858382;29;20461;-78
2023/12/26 10:01:11;;;;;;;6.57;1.83;;;18.50;73.10;;;;;;4923860;29;20450;-79
2023/12/26 10:14:06;;;;;;;4.07;1.87;;;18.60;72.80;;;;;;4939444;28;20452;-80
2023/12/26 10:16:42;;;;;;;3.70;1.90;;;18.60;72.80;;;;;;5014533;28;20506;-81
2023/12/26 10:19:50;;;;;;;2.40;1.40;;;18.60;72.60;;;;;;5004812;28;20440;-80
2023/12/26 10:22:38;;;;;;;4.07;1.90;;;18.60;72.70;;;;;;5010377;28;20437;-79
2023/12/26 10:28:10;;;;;;;17.30;4.17;;;18.60;72.30;;;;;;5003037;28;20455;-78
2023/12/26 10:30:39;;;;;;;24.53;4.23;;;16.50;60.40;;;;;;5009140;28;20545;-80
2023/12/26 10:33:07;;;;;;;15.60;2.97;;;15.00;64.60;;;;;;5013245;28;20490;-78
2023/12/26 10:35:35;;;;;;;18.10;3.40;;;14.30;69.10;;;;;;5014512;28;20464;-77
2023/12/26 10:38:03;;;;;;;12.37;3.00;;;13.70;71.40;;;;;;5014905;28;20455;-78
2023/12/26 10:40:34;;;;;;;15.53;2.93;;;13.40;73.60;;;;;;5017033;28;20459;-78
2023/12/26 10:43:02;;;;;;;17.57;3.57;;;13.00;74.80;;;;;;5016076;28;20445;-79
2023/12/26 10:45:33;;;;;;;12.60;2.90;;;12.90;77.20;;;;;;5015675;28;20503;-78
2023/12/26 10:48:10;;;;;;;20.07;3.27;;;12.80;78.60;;;;;;5006258;28;20452;-79
2023/12/26 10:51:05;;;;;;;13.52;2.90;;;12.70;76.50;;;;;;5008961;28;20476;-84
2023/12/26 10:53:48;;;;;;;12.57;3.00;;;13.50;81.70;;;;;;5013525;28;20241;-81
2023/12/26 10:56:25;;;;;;;20.97;3.43;;;14.60;79.70;;;;;;5012972;28;20454;-81
2023/12/26 10:59:43;;;;;;;12.17;2.60;;;15.50;75.80;;;;;;5013162;28;20440;-85
2023/12/26 11:02:16;;;;;;;12.20;2.60;;;16.10;72.80;;;;;;5014055;28;20476;-81
2023/12/26 11:05:59;;;;;;;9.40;2.30;;;16.60;70.90;;;;;;5013967;28;20467;-83
2023/12/26 11:09:02;;;;;;;12.23;2.40;;;17.00;69.60;;;;;;5002176;28;20527;-83
2023/12/26 11:11:34;;;;;;;8.30;2.43;;;17.40;68.40;;;;;;5013895;28;20448;-82
2023/12/26 11:14:15;;;;;;;4.50;2.00;;;17.60;67.90;;;;;;5013686;28;20546;-83
2023/12/26 11:16:44;;;;;;;12.90;2.67;;;17.80;67.30;;;;;;5014127;28;20440;-81
2023/12/26 11:19:11;;;;;;;10.00;2.43;;;17.90;67.20;;;;;;5013755;28;20575;-82
2023/12/26 11:26:03;;;;;;;8.40;2.20;;;18.10;66.70;;;;;;4997331;28;20505;-83
2023/12/26 11:48:40;;;;;;;8.07;2.50;;;18.80;66.30;;;;;;4910533;29;20476;-85
2023/12/26 11:55:20;;;;;;;10.00;2.73;;;19.00;66.00;;;;;;4852632;29;20505;-84
2023/12/26 11:59:59;;;;;;;12.07;2.70;;;19.00;66.00;;;;;;4911647;29;20450;-84
2023/12/26 12:01:57;;;;;;;7.87;1.93;;;19.10;66.00;;;;;;4878781;29;20445;-82
2023/12/26 12:05:51;;;;;;;7.50;2.30;;;19.20;65.70;;;;;;4914690;28;20442;-80
2023/12/26 12:09:17;;;;;;;9.63;2.33;;;19.30;65.90;;;;;;4938780;28;20515;-83
2023/12/26 12:15:44;;;;;;;8.93;2.47;;;19.10;65.60;;;;;;4993141;28;20424;-81
2023/12/26 12:18:18;;;;;;;4.90;1.93;;;19.00;65.80;;;;;;5021993;28;20452;-79
2023/12/26 12:20:51;;;;;;;9.60;2.70;;;19.10;66.30;;;;;;5020287;28;20497;-81
2023/12/26 12:30:30;;;;;;;5.43;2.03;;;19.10;66.30;;;;;;5036625;28;20417;-81
2023/12/26 12:32:57;;;;;;;9.63;2.47;;;19.00;65.80;;;;;;5039037;28;20479;-80
2023/12/26 12:35:25;;;;;;;9.40;2.40;;;19.00;65.80;;;;;;5039384;28;20494;-81
2023/12/26 12:37:55;;;;;;;8.53;2.20;;;19.00;66.00;;;;;;5039156;28;20443;-84
2023/12/26 12:40:22;;;;;;;8.17;2.10;;;18.90;65.60;;;;;;5031900;28;21015;-79
2023/12/26 12:42:51;;;;;;;8.73;2.40;;;18.90;65.70;;;;;;5028884;28;20494;-80
2023/12/26 12:45:19;;;;;;;8.40;2.60;;;18.90;65.60;;;;;;5039885;28;20470;-79
2023/12/26 12:47:46;;;;;;;9.47;2.63;;;19.00;65.80;;;;;;5037483;28;20814;-79
2023/12/26 12:50:13;;;;;;;11.10;2.87;;;19.10;65.20;;;;;;5037497;28;20443;-79
2023/12/26 12:52:41;;;;;;;6.93;2.17;;;19.20;65.30;;;;;;5038034;28;20446;-79
2023/12/26 12:55:10;;;;;;;7.37;2.70;;;19.30;65.10;;;;;;5027216;28;20504;-80
2023/12/26 12:57:37;;;;;;;10.80;3.20;;;19.40;65.00;;;;;;5027646;28;20462;-81
2023/12/26 13:00:05;;;;;;;6.40;2.20;;;19.60;65.60;;;;;;5041888;28;20426;-81
2023/12/26 13:02:44;;;;;;;11.17;2.87;;;19.80;65.60;;;;;;5045518;28;20424;-84
2023/12/26 13:05:21;;;;;;;7.37;2.57;;;20.10;65.40;;;;;;5037219;28;20441;-83
2023/12/26 13:07:50;;;;;;;5.50;2.67;;;20.40;64.40;;;;;;5031711;28;20448;-82
2023/12/26 13:10:27;;;;;;;8.67;2.97;;;20.50;64.10;;;;;;5042318;28;20450;-81
2023/12/26 13:12:59;;;;;;;12.50;3.43;;;20.50;64.00;;;;;;5029836;28;20464;-77
2023/12/26 13:15:40;;;;;;;7.03;2.93;;;20.50;63.80;;;;;;5032629;28;20471;-80
2023/12/26 13:18:07;;;;;;;8.57;3.30;;;20.60;64.30;;;;;;5044331;28;20417;-79
2023/12/26 13:20:40;;;;;;;10.27;3.30;;;20.60;64.10;;;;;;5047397;28;20422;-81
2023/12/26 13:23:07;;;;;;;8.30;3.30;;;20.60;64.20;;;;;;5042219;28;20437;-81
2023/12/26 13:25:43;;;;;;;7.40;3.30;;;20.50;64.10;;;;;;5039072;28;20434;-80
2023/12/26 13:28:54;;;;;;;7.33;3.63;;;20.60;65.10;;;;;;5014085;28;20428;-80
2023/12/26 13:31:25;;;;;;;10.73;3.57;;;20.80;64.60;;;;;;5037369;28;20443;-79
2023/12/26 13:33:52;;;;;;;8.30;3.77;;;20.80;64.60;;;;;;5041157;28;20514;-81
2023/12/26 13:36:24;;;;;;;10.67;3.60;;;20.80;64.10;;;;;;5034300;28;20422;-80
2023/12/26 13:38:51;;;;;;;11.67;3.70;;;20.60;64.20;;;;;;5036161;28;20428;-81
2023/12/26 13:41:21;;;;;;;9.93;3.70;;;20.60;64.30;;;;;;5037016;28;20443;-79
2023/12/26 13:43:57;;;;;;;8.33;3.03;;;20.50;64.10;;;;;;5035724;28;20435;-80
2023/12/26 13:50:45;;;;;;;8.13;3.60;;;20.20;64.80;;;;;;5026443;28;20457;-79
2023/12/26 13:53:24;;;;;;;7.47;3.43;;;20.10;64.90;;;;;;5033866;28;20509;-78
2023/12/26 13:56:15;;;;;;;10.40;3.80;;;20.00;65.20;;;;;;5027182;28;20446;-80
2023/12/26 13:58:58;;;;;;;8.63;3.37;;;19.90;65.30;;;;;;5032245;28;20474;-79
2023/12/26 14:01:40;;;;;;;11.87;3.10;;;19.80;65.50;;;;;;5032651;28;20456;-79
2023/12/26 14:04:14;;;;;;;8.30;3.47;;;19.70;65.40;;;;;;5034939;28;20445;-77
2023/12/26 14:07:02;;;;;;;6.53;3.30;;;19.60;65.80;;;;;;5035497;28;20443;-78
2023/12/26 14:09:43;;;;;;;11.33;3.70;;;19.60;66.00;;;;;;5043100;28;20455;-78
2023/12/26 14:12:18;;;;;;;12.80;4.00;;;19.50;66.20;;;;;;5031144;28;20428;-78
2023/12/26 14:14:56;;;;;;;7.07;3.57;;;19.50;66.00;;;;;;5034670;28;20450;-78
2023/12/26 14:17:28;;;;;;;8.43;3.27;;;19.40;66.20;;;;;;5038205;28;20443;-78
2023/12/26 14:20:05;;;;;;;4.90;3.13;;;19.40;66.40;;;;;;5029298;28;20440;-78
2023/12/26 14:22:39;;;;;;;8.43;3.20;;;19.30;66.70;;;;;;5037559;28;20458;-80
2023/12/26 14:25:14;;;;;;;8.77;3.37;;;19.30;66.70;;;;;;5026554;28;20491;-78
2023/12/26 14:27:42;;;;;;;7.73;3.10;;;19.20;66.90;;;;;;5032021;28;20436;-78
2023/12/26 14:30:12;;;;;;;6.03;3.20;;;19.20;67.00;;;;;;5032362;28;20449;-78
2023/12/26 14:32:45;;;;;;;11.70;3.30;;;19.20;67.50;;;;;;5033051;28;20443;-77
2023/12/26 14:35:21;;;;;;;7.23;2.63;;;19.20;67.50;;;;;;5033364;28;20486;-78
2023/12/26 14:37:52;;;;;;;6.80;3.13;;;19.10;67.30;;;;;;5023790;28;20441;-78
2023/12/26 14:40:22;;;;;;;9.33;3.23;;;19.20;67.90;;;;;;5017850;28;20444;-77
2023/12/26 14:42:51;;;;;;;4.93;3.07;;;19.10;67.80;;;;;;5021122;28;20519;-78
2023/12/26 14:45:21;;;;;;;8.03;3.40;;;19.00;67.70;;;;;;5023007;28;20995;-79
2023/12/26 14:47:49;;;;;;;6.80;2.70;;;19.10;67.90;;;;;;5018244;28;20468;-79
2023/12/26 14:50:18;;;;;;;8.87;2.67;;;19.00;68.30;;;;;;5030581;28;20447;-79
2023/12/26 14:52:46;;;;;;;9.60;2.87;;;19.00;68.40;;;;;;5035398;28;20470;-79
2023/12/26 14:55:15;;;;;;;4.03;2.80;;;19.00;69.10;;;;;;5026906;28;20472;-78
2023/12/26 14:57:44;;;;;;;12.20;3.10;;;19.00;68.50;;;;;;5029021;28;20410;-78
2023/12/26 15:00:15;;;;;;;5.67;3.23;;;18.90;68.40;;;;;;5035781;28;20441;-79
2023/12/26 15:02:46;;;;;;;9.80;3.23;;;18.90;68.70;;;;;;5037258;28;20963;-80
2023/12/26 15:05:15;;;;;;;6.73;3.10;;;18.90;68.40;;;;;;5029794;28;20464;-79
2023/12/26 15:07:44;;;;;;;5.53;3.10;;;18.80;68.70;;;;;;5027962;28;20513;-79
2023/12/26 15:10:29;;;;;;;5.93;2.70;;;18.80;68.80;;;;;;5028503;28;20467;-79
2023/12/26 15:13:00;;;;;;;7.90;2.80;;;18.80;68.90;;;;;;5028271;28;20450;-79
2023/12/26 15:15:28;;;;;;;5.13;3.10;;;18.70;68.70;;;;;;5023795;28;20495;-78
2023/12/26 15:17:58;;;;;;;3.83;2.80;;;18.70;68.70;;;;;;5032442;28;20443;-79
2023/12/26 15:20:26;;;;;;;5.43;2.73;;;18.70;69.10;;;;;;5024513;28;20439;-80
2023/12/26 15:23:13;;;;;;;4.23;3.20;;;18.60;69.50;;;;;;5025861;28;20447;-81
2023/12/26 15:26:02;;;;;;;6.20;3.13;;;18.60;69.50;;;;;;5027775;28;20443;-81
2023/12/26 15:28:53;;;;;;;4.30;2.87;;;18.60;69.40;;;;;;5018365;28;20411;-81